createdAt,value
2018-08-18T00:00:30.889Z,3.37
2018-08-18T00:03:00.434Z,3.87
2018-08-18T00:05:29.993Z,3.90
2018-08-18T00:07:59.553Z,3.40
2018-08-18T00:10:29.281Z,3.47
2018-08-18T00:12:59.003Z,3.67
2018-08-18T00:15:28.569Z,3.33
2018-08-18T00:17:58.724Z,4.10
2018-08-18T00:20:28.253Z,3.73
2018-08-18T00:22:57.854Z,4.03
2018-08-18T00:25:27.392Z,3.93
2018-08-18T00:27:58.729Z,4.10
2018-08-18T00:30:29.208Z,4.10
2018-08-18T00:32:59.102Z,3.90
2018-08-18T00:35:28.763Z,5.13
2018-08-18T00:37:58.346Z,4.03
2018-08-18T00:40:27.964Z,3.97
2018-08-18T00:42:57.485Z,3.97
2018-08-18T00:45:27.254Z,3.67
2018-08-18T00:47:56.826Z,3.80
2018-08-18T00:50:40.360Z,4.20
2018-08-18T00:53:11.001Z,4.50
2018-08-18T00:55:40.565Z,3.80
2018-08-18T00:58:18.389Z,3.90
2018-08-18T01:00:53.611Z,3.13
2018-08-18T01:03:23.368Z,4.57
2018-08-18T01:05:52.845Z,4.17
2018-08-18T01:08:22.658Z,4.10
2018-08-18T01:10:52.274Z,4.00
2018-08-18T01:13:21.893Z,3.93
2018-08-18T01:15:52.575Z,3.80
2018-08-18T01:18:22.281Z,3.77
2018-08-18T01:20:52.187Z,4.03
2018-08-18T01:23:21.792Z,3.87
2018-08-18T01:25:51.359Z,4.20
2018-08-18T01:28:20.899Z,4.00
2018-08-18T01:31:06.839Z,4.30
2018-08-18T01:33:37.621Z,3.53
2018-08-18T01:36:07.460Z,3.57
2018-08-18T01:38:37.992Z,3.80
2018-08-18T01:41:20.014Z,3.93
2018-08-18T01:44:10.176Z,4.00
2018-08-18T01:46:40.111Z,4.33
2018-08-18T01:49:24.999Z,4.40
2018-08-18T01:51:54.713Z,4.37
2018-08-18T01:54:24.234Z,4.40
2018-08-18T01:56:59.190Z,4.30
2018-08-18T01:59:28.778Z,4.23
2018-08-18T02:01:58.333Z,4.30
2018-08-18T02:04:28.240Z,4.27
2018-08-18T02:07:13.485Z,4.77
2018-08-18T02:09:43.361Z,4.60
2018-08-18T02:12:13.254Z,4.80
2018-08-18T02:14:43.252Z,4.83
2018-08-18T02:17:33.406Z,4.53
2018-08-18T02:20:03.123Z,4.77
2018-08-18T02:22:33.236Z,4.43
2018-08-18T02:25:02.933Z,4.50
2018-08-18T02:27:32.797Z,4.90
2018-08-18T02:30:16.277Z,5.27
2018-08-18T02:32:45.869Z,4.43
2018-08-18T02:35:15.504Z,5.40
2018-08-18T02:37:45.245Z,4.80
2018-08-18T02:40:16.943Z,4.60
2018-08-18T02:42:46.483Z,4.73
2018-08-18T02:45:16.967Z,4.73
2018-08-18T02:47:46.822Z,5.23
2018-08-18T02:50:16.624Z,4.47
2018-08-18T02:52:46.314Z,4.97
2018-08-18T02:55:16.524Z,5.13
2018-08-18T02:57:46.201Z,4.27
2018-08-18T03:00:24.684Z,4.57
2018-08-18T03:02:54.714Z,4.70
2018-08-18T03:05:24.531Z,4.17
2018-08-18T03:07:54.102Z,4.43
2018-08-18T03:10:25.069Z,4.00
2018-08-18T03:12:59.814Z,5.20
2018-08-18T03:16:09.115Z,4.30
2018-08-18T03:18:46.752Z,4.67
2018-08-18T03:21:17.055Z,4.70
2018-08-18T03:24:03.478Z,4.77
2018-08-18T03:27:03.601Z,4.53
2018-08-18T03:29:52.716Z,4.60
2018-08-18T03:32:26.012Z,5.30
2018-08-18T03:34:56.004Z,4.60
2018-08-18T03:37:30.554Z,4.73
2018-08-18T03:40:00.170Z,4.57
2018-08-18T03:42:35.929Z,5.00
2018-08-18T03:47:51.333Z,4.73
2018-08-18T03:50:20.990Z,5.77
2018-08-18T03:52:50.581Z,5.80
2018-08-18T03:55:33.119Z,4.30
2018-08-18T03:58:02.680Z,4.47
2018-08-18T04:00:32.274Z,4.73
2018-08-18T04:03:02.202Z,5.23
2018-08-18T04:05:31.797Z,4.63
2018-08-18T04:08:01.401Z,3.83
2018-08-18T04:10:30.991Z,4.80
2018-08-18T04:13:01.633Z,4.80
2018-08-18T04:15:31.200Z,4.80
2018-08-18T04:18:05.313Z,4.77
2018-08-18T04:20:34.813Z,4.60
2018-08-18T04:23:04.414Z,4.40
2018-08-18T04:25:33.954Z,4.53
2018-08-18T04:28:03.523Z,4.73
2018-08-18T04:30:33.074Z,4.87
2018-08-18T04:33:03.936Z,4.03
2018-08-18T04:35:34.061Z,4.50
2018-08-18T04:38:04.444Z,4.20
2018-08-18T04:40:36.622Z,4.73
2018-08-18T04:43:06.189Z,4.53
2018-08-18T04:45:35.895Z,4.50
2018-08-18T04:48:05.978Z,4.07
2018-08-18T04:50:35.612Z,4.60
2018-08-18T04:53:09.016Z,4.87
2018-08-18T04:55:38.623Z,4.47
2018-08-18T04:58:08.242Z,5.90
2018-08-18T05:00:37.889Z,5.83
2018-08-18T05:03:07.749Z,5.63
2018-08-18T05:05:37.330Z,4.37
2018-08-18T05:08:13.457Z,5.50
2018-08-18T05:10:42.990Z,4.97
2018-08-18T05:13:43.043Z,5.00
2018-08-18T05:16:12.607Z,5.10
2018-08-18T05:18:42.234Z,5.17
2018-08-18T05:21:11.855Z,4.80
2018-08-18T05:23:41.557Z,5.73
2018-08-18T05:26:11.229Z,6.80
2018-08-18T05:28:40.938Z,5.07
2018-08-18T05:31:10.546Z,5.47
2018-08-18T05:33:40.241Z,5.93
2018-08-18T05:36:10.969Z,5.30
2018-08-18T05:38:41.975Z,5.23
2018-08-18T05:41:11.908Z,4.90
2018-08-18T05:43:41.606Z,5.93
2018-08-18T05:46:11.388Z,5.37
2018-08-18T05:48:40.959Z,5.40
2018-08-18T05:51:10.846Z,5.37
2018-08-18T05:53:40.519Z,5.13
2018-08-18T05:56:10.081Z,5.73
2018-08-18T05:58:51.979Z,5.20
2018-08-18T06:01:28.615Z,5.57
2018-08-18T06:04:04.195Z,5.03
2018-08-18T06:06:34.159Z,5.73
2018-08-18T06:09:04.569Z,5.23
2018-08-18T06:11:34.162Z,5.67
2018-08-18T06:14:03.761Z,5.63
2018-08-18T06:16:33.385Z,5.17
2018-08-18T06:19:03.300Z,4.87
2018-08-18T06:24:29.651Z,4.93
2018-08-18T06:26:59.200Z,5.40
2018-08-18T06:29:29.755Z,6.50
2018-08-18T06:32:01.795Z,5.73
2018-08-18T06:34:33.027Z,6.13
2018-08-18T06:37:03.146Z,6.70
2018-08-18T06:39:51.114Z,5.77
2018-08-18T06:42:34.042Z,6.40
2018-08-18T06:45:05.324Z,6.73
2018-08-18T06:47:34.942Z,6.17
2018-08-18T06:50:06.040Z,6.77
2018-08-18T06:52:35.593Z,6.40
2018-08-18T06:55:06.734Z,5.67
2018-08-18T06:57:43.555Z,6.30
2018-08-18T07:00:15.518Z,7.23
2018-08-18T07:02:45.114Z,7.23
2018-08-18T07:05:15.840Z,7.23
2018-08-18T07:07:46.108Z,7.37
2018-08-18T07:10:35.719Z,8.07
2018-08-18T07:13:06.998Z,6.77
2018-08-18T07:15:44.755Z,7.03
2018-08-18T07:18:15.598Z,7.57
2018-08-18T07:20:45.455Z,7.30
2018-08-18T07:23:15.010Z,7.27
2018-08-18T07:25:50.776Z,6.37
2018-08-18T07:28:21.954Z,7.33
2018-08-18T07:30:51.736Z,6.87
2018-08-18T07:33:22.062Z,6.43
2018-08-18T07:35:51.664Z,7.03
2018-08-18T07:38:21.364Z,6.30
2018-08-18T07:40:53.448Z,6.40
2018-08-18T07:43:26.474Z,5.67
2018-08-18T07:45:57.954Z,5.03
2018-08-18T07:48:27.868Z,5.43
2018-08-18T07:50:57.486Z,3.77
2018-08-18T07:53:27.226Z,4.90
2018-08-18T07:56:02.470Z,4.37
2018-08-18T07:58:32.747Z,4.57
2018-08-18T08:01:04.979Z,4.13
2018-08-18T08:03:37.011Z,3.70
2018-08-18T08:06:11.516Z,4.77
2018-08-18T08:08:46.205Z,4.10
2018-08-18T08:11:15.778Z,3.67
2018-08-18T08:13:45.333Z,4.27
2018-08-18T08:16:14.838Z,3.33
2018-08-18T08:18:44.716Z,2.87
2018-08-18T08:21:14.279Z,2.83
2018-08-18T08:23:43.838Z,2.77
2018-08-18T08:26:13.727Z,2.87
2018-08-18T08:28:43.290Z,2.47
2018-08-18T08:31:12.849Z,2.23
2018-08-18T08:33:42.631Z,1.70
2018-08-18T08:36:15.794Z,1.60
2018-08-18T08:38:58.663Z,0.93
2018-08-18T08:41:33.643Z,1.40
2018-08-18T08:44:05.523Z,1.60
2018-08-18T08:46:52.100Z,1.30
2018-08-18T08:49:29.030Z,1.33
2018-08-18T08:51:59.479Z,1.43
2018-08-18T08:54:35.608Z,1.40
2018-08-18T08:57:07.636Z,1.20
2018-08-18T08:59:39.025Z,1.60
2018-08-18T09:02:14.335Z,1.43
2018-08-18T09:04:44.169Z,1.70
2018-08-18T09:07:14.194Z,2.10
2018-08-18T09:09:44.157Z,1.87
2018-08-18T09:12:13.911Z,1.67
2018-08-18T09:14:43.909Z,1.97
2018-08-18T09:17:14.402Z,2.83
2018-08-18T09:19:44.701Z,2.40
2018-08-18T09:22:14.780Z,2.77
2018-08-18T09:24:44.826Z,2.90
2018-08-18T09:27:15.265Z,2.20
2018-08-18T09:29:45.087Z,2.57
2018-08-18T09:32:37.993Z,2.80
2018-08-18T09:35:07.966Z,2.80
2018-08-18T09:37:37.899Z,3.33
2018-08-18T09:40:08.021Z,3.40
2018-08-18T09:42:37.956Z,2.50
2018-08-18T09:45:31.698Z,3.53
2018-08-18T09:48:21.784Z,2.70
2018-08-18T09:50:51.832Z,2.80
2018-08-18T09:53:28.294Z,2.47
2018-08-18T09:55:58.966Z,2.43
2018-08-18T09:58:29.577Z,3.80
2018-08-18T10:00:59.416Z,2.40
2018-08-18T10:03:29.413Z,3.10
2018-08-18T10:06:07.660Z,3.30
2018-08-18T10:08:37.883Z,3.20
2018-08-18T10:11:08.083Z,2.90
2018-08-18T10:13:38.158Z,3.23
2018-08-18T10:16:09.388Z,2.60
2018-08-18T10:18:43.683Z,3.77
2018-08-18T10:21:14.651Z,3.93
2018-08-18T10:23:49.444Z,2.60
2018-08-18T10:26:19.306Z,3.50
2018-08-18T10:28:50.039Z,2.60
2018-08-18T10:31:19.914Z,3.03
2018-08-18T10:33:49.727Z,3.10
2018-08-18T10:36:19.590Z,2.87
2018-08-18T10:38:49.613Z,2.27
2018-08-18T10:41:19.398Z,3.30
2018-08-18T10:43:49.149Z,3.13
2018-08-18T10:46:18.919Z,2.70
2018-08-18T10:48:52.567Z,2.53
2018-08-18T10:51:39.359Z,2.10
2018-08-18T10:54:09.755Z,3.27
2018-08-18T10:59:59.279Z,2.47
2018-08-18T11:02:34.086Z,1.93
2018-08-18T11:05:03.982Z,2.27
2018-08-18T11:07:33.573Z,2.67
2018-08-18T11:10:03.264Z,2.00
2018-08-18T11:12:40.984Z,2.27
2018-08-18T11:15:13.020Z,2.17
2018-08-18T11:17:42.726Z,2.40
2018-08-18T11:20:19.067Z,2.57
2018-08-18T11:23:09.500Z,2.23
2018-08-18T11:25:48.837Z,3.17
2018-08-18T11:28:19.186Z,2.40
2018-08-18T11:30:50.701Z,2.23
2018-08-18T11:33:43.817Z,2.20
2018-08-18T11:36:16.477Z,2.33
2018-08-18T11:38:46.100Z,3.00
2018-08-18T11:41:15.734Z,3.10
2018-08-18T11:43:49.051Z,3.00
2018-08-18T11:46:18.581Z,2.63
2018-08-18T11:48:48.181Z,2.60
2018-08-18T11:51:17.694Z,3.07
2018-08-18T11:54:00.332Z,2.63
2018-08-18T11:56:30.155Z,2.40
2018-08-18T11:59:08.773Z,2.83
2018-08-18T12:01:39.857Z,2.80
2018-08-18T12:04:09.471Z,2.97
2018-08-18T12:06:48.002Z,2.33
2018-08-18T12:09:18.473Z,3.17
2018-08-18T12:11:49.715Z,3.30
2018-08-18T12:14:19.432Z,3.30
2018-08-18T12:16:50.143Z,2.97
2018-08-18T12:19:21.326Z,3.27
2018-08-18T12:21:50.925Z,2.87
2018-08-18T12:24:22.116Z,3.50
2018-08-18T12:27:06.951Z,3.13
2018-08-18T12:29:36.626Z,3.07
2018-08-18T12:32:12.734Z,2.40
2018-08-18T12:34:42.376Z,2.50
2018-08-18T12:37:14.426Z,2.33
2018-08-18T12:39:48.110Z,2.20
2018-08-18T12:42:23.088Z,2.47
2018-08-18T12:44:52.714Z,2.63
2018-08-18T12:47:37.326Z,2.10
2018-08-18T12:50:07.576Z,1.70
2018-08-18T12:52:47.992Z,2.37
2018-08-18T12:55:17.838Z,2.13
2018-08-18T12:57:49.531Z,2.47
2018-08-18T13:00:19.483Z,2.80
2018-08-18T13:02:54.617Z,3.13
2018-08-18T13:05:27.608Z,3.10
2018-08-18T13:07:57.850Z,3.00
2018-08-18T13:10:29.126Z,3.17
2018-08-18T13:12:58.853Z,3.00
2018-08-18T13:15:29.240Z,3.43
2018-08-18T13:18:03.475Z,2.93
2018-08-18T13:20:33.516Z,2.53
2018-08-18T13:23:03.438Z,3.37
2018-08-18T13:25:33.203Z,2.73
2018-08-18T13:28:05.860Z,2.13
2018-08-18T13:30:35.732Z,2.70
2018-08-18T13:33:05.603Z,3.33
2018-08-18T13:35:35.922Z,2.43
2018-08-18T13:38:18.031Z,2.60
2018-08-18T13:40:48.896Z,2.90
2018-08-18T13:43:34.538Z,2.80
2018-08-18T13:46:04.572Z,2.73
2018-08-18T13:48:34.321Z,2.97
2018-08-18T13:51:04.141Z,3.47
2018-08-18T13:53:39.751Z,2.17
2018-08-18T13:56:12.340Z,2.73
2018-08-18T13:58:44.851Z,2.60
2018-08-18T14:01:39.024Z,2.20
2018-08-18T14:04:36.009Z,2.50
2018-08-18T14:07:07.119Z,2.47
2018-08-18T14:09:47.219Z,2.37
2018-08-18T14:12:21.849Z,2.60
2018-08-18T14:14:55.016Z,2.47
2018-08-18T14:17:28.926Z,2.07
2018-08-18T14:20:02.180Z,2.00
2018-08-18T14:22:35.249Z,1.60
2018-08-18T14:25:08.631Z,1.97
2018-08-18T14:27:51.699Z,2.13
2018-08-18T14:30:31.849Z,2.23
2018-08-18T14:33:06.217Z,2.00
2018-08-18T14:35:46.043Z,2.20
2018-08-18T14:38:18.976Z,1.87
2018-08-18T14:40:52.360Z,2.13
2018-08-18T14:43:29.918Z,1.90
2018-08-18T14:46:17.912Z,1.80
2018-08-18T14:48:50.977Z,2.43
2018-08-18T14:51:35.057Z,2.07
2018-08-18T14:56:54.456Z,1.80
2018-08-18T14:59:36.854Z,1.57
2018-08-18T15:02:10.782Z,2.00
2018-08-18T15:04:43.966Z,1.83
2018-08-18T15:07:17.144Z,1.70
2018-08-18T15:09:54.790Z,2.17
2018-08-18T15:12:28.409Z,2.33
2018-08-18T15:14:58.401Z,1.90
2018-08-18T15:17:31.413Z,1.93
2018-08-18T15:20:03.868Z,1.87
2018-08-18T15:22:36.857Z,1.27
2018-08-18T15:25:10.762Z,1.93
2018-08-18T15:27:45.108Z,1.53
2018-08-18T15:30:24.287Z,1.40
2018-08-18T15:32:58.024Z,1.80
2018-08-18T15:35:33.259Z,1.90
2018-08-18T15:38:13.843Z,1.97
2018-08-18T15:40:56.944Z,1.50
2018-08-18T15:43:30.270Z,1.10
2018-08-18T15:46:10.262Z,1.73
2018-08-18T15:48:44.736Z,1.83
2018-08-18T15:51:18.301Z,1.60
2018-08-18T15:53:55.280Z,1.60
2018-08-18T15:56:31.668Z,2.03
2018-08-18T15:59:05.907Z,1.80
2018-08-18T16:01:41.541Z,1.83
2018-08-18T16:04:13.442Z,1.50
2018-08-18T16:06:46.742Z,1.57
2018-08-18T16:09:20.087Z,2.10
2018-08-18T16:12:17.864Z,1.73
2018-08-18T16:15:01.954Z,1.97
2018-08-18T16:17:35.333Z,1.67
2018-08-18T16:23:29.712Z,1.37
2018-08-18T16:26:03.918Z,1.70
2018-08-18T16:28:38.184Z,1.50
2018-08-18T16:31:11.704Z,1.43
2018-08-18T16:33:47.680Z,1.40
2018-08-18T16:36:21.079Z,1.03
2018-08-18T16:38:54.685Z,1.63
2018-08-18T16:41:28.718Z,1.60
2018-08-18T16:44:01.673Z,1.87
2018-08-18T16:46:35.373Z,1.30
2018-08-18T16:49:08.743Z,1.90
2018-08-18T16:51:42.706Z,1.47
2018-08-18T16:54:25.407Z,1.67
2018-08-18T16:56:58.621Z,2.10
2018-08-18T16:59:32.148Z,1.37
2018-08-18T17:02:06.261Z,1.30
2018-08-18T17:04:40.993Z,2.07
2018-08-18T17:07:23.683Z,2.20
2018-08-18T17:09:53.419Z,1.47
2018-08-18T17:12:32.629Z,2.03
2018-08-18T17:15:05.719Z,1.40
2018-08-18T17:17:38.492Z,2.03
2018-08-18T17:20:12.284Z,2.13
2018-08-18T17:22:46.942Z,1.53
2018-08-18T17:25:19.549Z,1.67
2018-08-18T17:27:53.817Z,1.97
2018-08-18T17:30:33.865Z,1.87
2018-08-18T17:33:10.528Z,1.97
2018-08-18T17:35:46.921Z,2.13
2018-08-18T17:38:23.726Z,1.53
2018-08-18T17:40:59.780Z,1.90
2018-08-18T17:43:38.974Z,1.90
2018-08-18T17:46:16.601Z,1.80
2018-08-18T17:48:57.015Z,2.00
2018-08-18T17:51:33.182Z,2.53
2018-08-18T17:54:05.966Z,2.07
2018-08-18T17:56:36.781Z,1.70
2018-08-18T17:59:09.748Z,1.50
2018-08-18T18:02:01.262Z,1.60
2018-08-18T18:04:33.536Z,2.00
2018-08-18T18:07:05.025Z,1.80
2018-08-18T18:09:36.126Z,1.80
2018-08-18T18:12:27.441Z,2.10
2018-08-18T18:15:02.132Z,1.40
2018-08-18T18:20:28.743Z,1.47
2018-08-18T18:23:06.978Z,1.83
2018-08-18T18:25:49.631Z,2.13
2018-08-18T18:28:24.990Z,2.00
2018-08-18T18:30:59.596Z,2.10
2018-08-18T18:33:31.420Z,1.97
2018-08-18T18:36:05.101Z,1.50
2018-08-18T18:39:13.241Z,2.50
2018-08-18T18:41:48.088Z,1.90
2018-08-18T18:44:27.061Z,1.77
2018-08-18T18:46:58.836Z,1.87
2018-08-18T18:49:35.720Z,2.30
2018-08-18T18:52:09.278Z,2.23
2018-08-18T18:54:42.074Z,1.90
2018-08-18T18:57:12.022Z,1.93
2018-08-18T18:59:56.202Z,2.87
2018-08-18T19:02:39.059Z,2.10
2018-08-18T19:05:27.742Z,2.27
2018-08-18T19:08:16.362Z,2.00
2018-08-18T19:10:46.280Z,2.17
2018-08-18T19:13:29.613Z,2.10
2018-08-18T19:16:10.850Z,2.00
2018-08-18T19:18:42.213Z,2.00
2018-08-18T19:21:14.881Z,1.93
2018-08-18T19:23:51.806Z,1.80
2018-08-18T19:26:22.360Z,2.57
2018-08-18T19:28:53.677Z,2.13
2018-08-18T19:31:28.942Z,2.27
2018-08-18T19:34:13.131Z,2.33
2018-08-18T19:37:01.567Z,1.87
2018-08-18T19:39:32.926Z,2.07
2018-08-18T19:42:14.630Z,2.63
2018-08-18T19:44:47.390Z,2.27
2018-08-18T19:47:31.868Z,2.43
2018-08-18T19:50:08.041Z,2.93
2018-08-18T19:52:38.962Z,3.00
2018-08-18T19:55:11.896Z,2.10
2018-08-18T19:57:46.527Z,2.43
2018-08-18T20:00:28.477Z,3.23
2018-08-18T20:03:10.907Z,2.50
2018-08-18T20:05:40.821Z,2.73
2018-08-18T20:08:25.612Z,3.17
2018-08-18T20:11:00.356Z,2.73
2018-08-18T20:13:32.606Z,2.70
2018-08-18T20:16:08.140Z,2.97
2018-08-18T20:18:45.715Z,2.70
2018-08-18T20:21:18.698Z,3.20
2018-08-18T20:23:57.276Z,3.37
2018-08-18T20:26:35.872Z,2.63
2018-08-18T20:29:09.583Z,3.40
2018-08-18T20:31:56.171Z,2.73
2018-08-18T20:37:29.001Z,3.15
2018-08-18T20:40:06.897Z,3.50
2018-08-18T20:42:42.025Z,3.03
2018-08-18T20:45:17.737Z,3.60
2018-08-18T20:47:50.895Z,3.57
2018-08-18T20:50:24.567Z,3.53
2018-08-18T20:53:07.186Z,3.00
2018-08-18T20:55:37.236Z,3.40
2018-08-18T20:58:07.101Z,3.77
2018-08-18T21:00:36.917Z,3.67
2018-08-18T21:03:15.667Z,3.47
2018-08-18T21:05:45.676Z,3.70
2018-08-18T21:08:22.734Z,4.00
2018-08-18T21:11:01.265Z,3.73
2018-08-18T21:13:34.473Z,4.70
2018-08-18T21:16:04.379Z,4.67
2018-08-18T21:18:39.133Z,4.50
2018-08-18T21:21:43.306Z,3.90
2018-08-18T21:24:14.055Z,4.40
2018-08-18T21:26:48.230Z,5.53
2018-08-18T21:29:17.919Z,5.63
2018-08-18T21:31:50.931Z,5.37
2018-08-18T21:34:24.474Z,4.70
2018-08-18T21:36:54.519Z,5.03
2018-08-18T21:39:24.271Z,5.40
2018-08-18T21:42:06.448Z,5.63
2018-08-18T21:44:36.114Z,5.30
2018-08-18T21:47:12.446Z,5.60
2018-08-18T21:49:48.656Z,5.17
2018-08-18T21:52:24.649Z,5.10
2018-08-18T21:55:04.112Z,5.67
2018-08-18T21:57:52.548Z,4.67
2018-08-18T22:00:23.221Z,4.70
2018-08-18T22:02:53.550Z,5.00
2018-08-18T22:05:23.214Z,4.60
2018-08-18T22:07:54.871Z,4.57
2018-08-18T22:10:26.432Z,4.87
2018-08-18T22:13:01.475Z,4.30
2018-08-18T22:18:21.726Z,5.03
2018-08-18T22:20:53.611Z,4.53
2018-08-18T22:23:28.391Z,4.17
2018-08-18T22:26:01.487Z,5.33
2018-08-18T22:28:31.165Z,4.93
2018-08-18T22:31:02.490Z,4.97
2018-08-18T22:33:39.314Z,7.23
2018-08-18T22:36:08.985Z,5.67
2018-08-18T22:38:39.358Z,5.23
2018-08-18T22:41:09.077Z,5.73
2018-08-18T22:43:39.277Z,5.63
2018-08-18T22:46:11.786Z,5.70
2018-08-18T22:48:42.102Z,4.63
2018-08-18T22:51:11.915Z,5.53
2018-08-18T22:53:44.265Z,5.30
2018-08-18T22:56:17.969Z,5.07
2018-08-18T22:59:04.858Z,5.00
2018-08-18T23:01:37.256Z,5.37
2018-08-18T23:04:44.772Z,5.03
2018-08-18T23:07:17.094Z,5.50
2018-08-18T23:09:47.221Z,5.50
2018-08-18T23:12:16.803Z,5.10
2018-08-18T23:14:46.430Z,4.93
2018-08-18T23:17:16.032Z,5.90
2018-08-18T23:19:45.939Z,5.77
2018-08-18T23:22:38.064Z,5.73
2018-08-18T23:25:07.754Z,5.10
2018-08-18T23:27:39.031Z,4.57
2018-08-18T23:30:10.226Z,5.30
2018-08-18T23:32:44.151Z,6.00
2018-08-18T23:35:14.311Z,5.20
2018-08-18T23:37:44.202Z,6.47
2018-08-18T23:40:14.457Z,5.77
2018-08-18T23:42:46.818Z,5.63
2018-08-18T23:45:18.073Z,5.80
2018-08-18T23:47:58.496Z,6.17
2018-08-18T23:50:28.497Z,5.40
2018-08-18T23:53:04.951Z,5.50
2018-08-18T23:55:40.167Z,5.83
2018-08-18T23:58:12.617Z,5.67
